Betty R Gambarella — WDJ6855 — position and weather

sailwx.info

Track history (hours):
 
Tides and Currents Weather Stations Pressure Air Temp Water Temp Dewpoint Dewpoint Depression Visibility Wind Speed Wind Dir Waves Ship Positions

Betty R Gambarella

Owner: CURTIN MARITIME CORP, LONG BEACH, CA. More information available from US FCC via Universal Licensing System and Coast Guard Vessel Documentation Center.

Last reported at 2017-Sep-13 23:50 UTC. Time now 2017-Sep-24 14:08 UTC.
Position N 33°46' W 118°13'.
Warning: this ship's position is 10 days out of date.

Length 33 m; draft 3.5 m.

Type: Tow > 200 m length. MMSI: 368000890.

Date/timePositionNaut miles runAvg speedWind from/ knotsBaromVisibWave heightAir tempDewpointWater temp
2017-Sep-13 23:50N 33°46' W 118°13'0 0.0
2017-Sep-13 23:31N 33°46' W 118°13'2 4.8
2017-Sep-13 23:01N 33°44' W 118°13'2 4.9
2017-Sep-13 22:30N 33°44' W 118°16'0 0.0
2017-Sep-13 22:00N 33°44' W 118°16'0 0.0
2017-Sep-13 21:30N 33°44' W 118°16'0 0.0
2017-Sep-13 21:00N 33°44' W 118°16'0 0.0
2017-Sep-13 20:31N 33°44' W 118°16'0 0.0
2017-Sep-13 20:00N 33°44' W 118°16'0 0.0
2017-Sep-13 19:31N 33°44' W 118°16'0 0.0
2017-Sep-13 19:00N 33°44' W 118°16'0 0.0
2017-Sep-13 18:31N 33°44' W 118°16'2 4.5
2017-Sep-13 18:00N 33°42' W 118°15'810.1
2017-Sep-13 17:14N 33°38' W 118°23'1510.0
2017-Sep-13 15:45N 33°31' W 118°39'2 9.8
2017-Sep-13 15:30N 33°30' W 118°41'5 9.3
2017-Sep-13 15:00N 33°28' W 118°46'5 9.5
2017-Sep-13 14:30N 33°30' W 118°52'6 9.6
2017-Sep-13 13:54N 33°31' W 118°58'4 9.9
2017-Sep-13 13:30N 33°33' W 119°03'5 9.8
2017-Sep-13 13:00N 33°34' W 119°08'16 9.6
2017-Sep-13 11:17N 33°40' W 119°27'3 9.6
2017-Sep-13 10:59N 33°41' W 119°30'5 9.6
2017-Sep-13 10:31N 33°42' W 119°35'5 9.3
2017-Sep-13 10:01N 33°43' W 119°41'5 9.5
2017-Sep-13 09:30N 33°45' W 119°46'5 9.3
2017-Sep-13 09:01N 33°46' W 119°51'5 9.6
2017-Sep-13 08:31N 33°48' W 119°57'5 9.0
2017-Sep-13 07:58N 33°49' W 120°03'4 9.5
2017-Sep-13 07:31N 33°50' W 120°08'5 9.7
2017-Sep-13 07:00N 33°52' W 120°13'5 9.5
2017-Sep-13 06:30N 33°54' W 120°18'5 9.4
2017-Sep-13 06:00N 33°56' W 120°23'5 9.1
2017-Sep-13 05:31N 33°58' W 120°28'5 9.1
2017-Sep-13 05:00N 34°01' W 120°33'5 9.4
2017-Sep-13 04:31N 34°03' W 120°38'5 9.3
2017-Sep-13 04:01N 34°05' W 120°42'5 9.1
2017-Sep-13 03:30N 34°08' W 120°47'5 9.4
2017-Sep-13 03:01N 34°10' W 120°52'5 9.5
2017-Sep-13 02:30N 34°13' W 120°56'510.3
2017-Sep-13 02:00N 34°17' W 121°00'510.0
2017-Sep-13 01:31N 34°21' W 121°04'5 9.9
2017-Sep-13 01:01N 34°25' W 121°08'5 9.8
2017-Sep-13 00:30N 34°29' W 121°11'5 9.5
2017-Sep-13 00:01N 34°33' W 121°14'5 9.5
2017-Sep-12 23:30N 34°37' W 121°17'5 9.7
2017-Sep-12 23:00N 34°42' W 121°20'5 9.7
2017-Sep-12 22:31N 34°46' W 121°23'6 9.7
2017-Sep-12 21:54N 34°51' W 121°26'4 9.6
2017-Sep-12 21:31N 34°54' W 121°28'8 9.7
2017-Sep-12 20:39N 35°02' W 121°33'2 9.4
2017-Sep-12 20:29N 35°03' W 121°34'5 9.4
2017-Sep-12 19:59N 35°07' W 121°37'119 9.5
2017-Sep-12 07:29N 36°52' W 122°47'5 9.5
2017-Sep-12 07:00N 36°56' W 122°50'5 9.6
2017-Sep-12 06:30N 37°00' W 122°53'5 9.7
2017-Sep-12 06:00N 37°05' W 122°55'6 9.8
2017-Sep-12 05:25N 37°10' W 122°57'7 9.7
2017-Sep-12 04:44N 37°17' W 122°58'210.2
2017-Sep-12 04:30N 37°19' W 122°58'510.3
2017-Sep-12 04:00N 37°24' W 122°59'510.6
2017-Sep-12 03:30N 37°30' W 122°59'510.4
2017-Sep-12 03:01N 37°35' W 123°00'16 9.8
2017-Sep-12 01:25N 37°44' W 122°45'4 9.9
2017-Sep-12 01:00N 37°46' W 122°40'5 9.9
2017-Sep-12 00:31N 37°48' W 122°34'510.1
2017-Sep-12 00:00N 37°50' W 122°28'5 9.4
2017-Sep-11 23:30N 37°54' W 122°26'4 7.6
2017-Sep-11 23:00N 37°58' W 122°26'4 8.1
2017-Sep-11 22:29N 38°01' W 122°23'4 8.4
2017-Sep-11 22:00N 38°03' W 122°18'3 1.8
2017-Sep-11 20:21N 38°04' W 122°15'3 5.8
2017-Sep-11 19:54N 38°03' W 122°18'2 4.1
2017-Sep-11 19:31N 38°03' W 122°20'2 3.2
2017-Sep-11 18:52N 38°02' W 122°22'3 6.9
2017-Sep-11 18:30N 38°00' W 122°25'3 6.8
2017-Sep-11 18:00N 37°57' W 122°26'3 6.5
2017-Sep-11 17:30N 37°54' W 122°25'3 5.7
2017-Sep-11 17:01N 37°51' W 122°25'3 6.0
2017-Sep-11 16:31N 37°49' W 122°28'2 4.4
2017-Sep-11 16:01N 37°48' W 122°31'2 3.8
2017-Sep-11 15:30N 37°47' W 122°33'2 4.0
2017-Sep-11 15:00N 37°46' W 122°35'3 5.2
2017-Sep-11 14:30N 37°46' W 122°38'11 6.1
2017-Sep-11 12:44N 37°52' W 122°49'2 5.8
2017-Sep-11 12:28N 37°53' W 122°51'3 5.9
2017-Sep-11 12:01N 37°54' W 122°54'3 6.4
2017-Sep-11 11:31N 37°55' W 122°57'3 6.1
2017-Sep-11 11:01N 37°57' W 123°01'3 6.3
2017-Sep-11 10:31N 37°59' W 123°04'3 6.3
2017-Sep-11 10:01N 38°02' W 123°05'3 6.8
2017-Sep-11 09:31N 38°06' W 123°04'3 6.9
2017-Sep-11 09:01N 38°09' W 123°04'4 7.1
2017-Sep-11 08:31N 38°12' W 123°03'4 7.2
2017-Sep-11 08:00N 38°16' W 123°03'2 4.7
2017-Sep-11 07:31N 38°18' W 123°03'2 4.2
2017-Sep-11 07:01N 38°16' W 123°02'5 9.6
2017-Sep-11 06:30N 38°12' W 123°03'5 9.4
2017-Sep-11 06:01N 38°07' W 123°03'5 9.2
2017-Sep-11 05:30N 38°02' W 123°03'4 8.7
2017-Sep-11 05:00N 37°58' W 123°02'5 9.8
2017-Sep-11 04:31N 37°56' W 122°57'5 9.7
2017-Sep-11 04:01N 37°53' W 122°51'5 9.3
2017-Sep-11 03:30N 37°51' W 122°46'5 9.3
2017-Sep-11 03:00N 37°49' W 122°41'510.1
2017-Sep-11 02:30N 37°48' W 122°34'611.5
2017-Sep-11 02:01N 37°50' W 122°28'510.8
2017-Sep-11 01:31N 37°56' W 122°25'510.2
2017-Sep-11 01:01N 38°00' W 122°24'5 9.2
2017-Sep-11 00:30N 38°03' W 122°19'4 7.4
2017-Sep-11 00:00N 38°05' W 122°15'2 3.7
2017-Sep-10 23:29N 38°06' W 122°16'3 5.4
2017-Sep-10 23:00N 38°04' W 122°15'3 5.5
2017-Sep-10 22:30N 38°03' W 122°19'4 8.1
2017-Sep-10 21:59N 38°01' W 122°23'4 8.1
2017-Sep-10 21:30N 37°57' W 122°26'4 8.4
2017-Sep-10 21:00N 37°53' W 122°25'4 7.2
2017-Sep-10 20:30N 37°50' W 122°24'4 8.7
2017-Sep-10 20:00N 37°49' W 122°29'5 8.9
2017-Sep-10 19:30N 37°46' W 122°34'2 2.6
2017-Sep-10 18:39N 37°46' W 122°36'1 4.3
2017-Sep-10 18:26N 37°46' W 122°38'12 4.4
2017-Sep-10 15:46N 37°52' W 122°50'1 4.5
2017-Sep-10 15:28N 37°53' W 122°51'2 4.6
2017-Sep-10 15:00N 37°54' W 122°54'5 4.6
2017-Sep-10 14:01N 37°56' W 122°59'2 4.5
2017-Sep-10 13:30N 37°57' W 123°01'2 4.7
2017-Sep-10 13:00N 37°59' W 123°03'2 4.5
2017-Sep-10 12:31N 38°01' W 123°05'3 5.2
2017-Sep-10 12:00N 38°03' W 123°05'3 5.3
2017-Sep-10 11:30N 38°06' W 123°04'3 5.2
2017-Sep-10 11:01N 38°08' W 123°04'3 5.3
2017-Sep-10 10:30N 38°11' W 123°03'3 5.2
2017-Sep-10 10:01N 38°14' W 123°03'3 5.0
2017-Sep-10 09:31N 38°16' W 123°03'2 4.0
2017-Sep-10 09:00N 38°18' W 123°03'0 0.8
2017-Sep-10 08:31N 38°19' W 123°03'3 6.9
2017-Sep-10 08:00N 38°15' W 123°02'5 9.2
2017-Sep-10 07:30N 38°10' W 123°03'4 8.8
2017-Sep-10 07:01N 38°06' W 123°03'5 9.0
2017-Sep-10 06:30N 38°02' W 123°03'4 8.3
2017-Sep-10 06:01N 37°58' W 123°01'4 8.9
2017-Sep-10 05:30N 37°56' W 122°56'5 9.4
2017-Sep-10 05:00N 37°53' W 122°51'5 9.5
2017-Sep-10 04:30N 37°51' W 122°46'5 9.5
2017-Sep-10 03:58N 37°49' W 122°40'510.0
2017-Sep-10 03:31N 37°48' W 122°34'510.9
2017-Sep-10 03:01N 37°50' W 122°28'510.7
2017-Sep-10 02:30N 37°55' W 122°25'610.6
2017-Sep-10 01:57N 38°01' W 122°24'510.4
2017-Sep-10 01:30N 38°03' W 122°18'4 7.2
2017-Sep-10 01:00N 38°06' W 122°16'0 1.0
2017-Sep-10 00:30N 38°06' W 122°16'1 2.5
2017-Sep-09 23:56N 38°05' W 122°15'3 7.5
2017-Sep-09 23:30N 38°03' W 122°18'5 9.0
2017-Sep-09 22:58N 38°01' W 122°24'4 8.7
2017-Sep-09 22:29N 37°57' W 122°26'4 9.4
2017-Sep-09 22:01N 37°53' W 122°24'4 7.2
2017-Sep-09 21:30N 37°49' W 122°26'5 9.9
2017-Sep-09 21:00N 37°47' W 122°32'3 5.0
2017-Sep-09 20:25N 37°46' W 122°35'4 6.3
2017-Sep-09 19:48N 37°46' W 122°40'11 6.9
2017-Sep-09 18:13N 37°52' W 122°51'2 7.3
2017-Sep-09 17:53N 37°54' W 122°54'3 7.2
2017-Sep-09 17:31N 37°55' W 122°57'4 7.0
2017-Sep-09 17:01N 37°57' W 123°00'3 6.8
2017-Sep-09 16:31N 37°59' W 123°04'3 6.3
2017-Sep-09 16:01N 38°02' W 123°05'4 7.1
2017-Sep-09 15:31N 38°06' W 123°05'4 7.1
2017-Sep-09 15:01N 38°09' W 123°04'4 7.1
2017-Sep-09 14:30N 38°13' W 123°03'3 6.9
2017-Sep-09 14:01N 38°16' W 123°03'2 4.5
2017-Sep-09 13:30N 38°18' W 123°02'1 1.9
2017-Sep-09 13:01N 38°17' W 123°02'1 2.0
2017-Sep-09 12:31N 38°17' W 123°03'2 3.7
2017-Sep-09 12:01N 38°15' W 123°03'2 4.4
2017-Sep-09 11:30N 38°13' W 123°03'3 5.4
2017-Sep-09 11:00N 38°10' W 123°04'3 6.7
2017-Sep-09 10:31N 38°07' W 123°04'3 6.4
2017-Sep-09 10:01N 38°04' W 123°04'3 6.2
2017-Sep-09 09:31N 38°00' W 123°05'3 5.8
2017-Sep-09 09:01N 37°58' W 123°03'3 6.7
2017-Sep-09 08:31N 37°56' W 122°59'3 6.5
2017-Sep-09 08:01N 37°54' W 122°56'3 6.8
2017-Sep-09 07:31N 37°53' W 122°52'4 7.3
2017-Sep-09 07:01N 37°51' W 122°48'4 7.5
2017-Sep-09 06:31N 37°48' W 122°44'4 7.6
2017-Sep-09 06:00N 37°46' W 122°40'4 6.5
2017-Sep-09 05:24N 37°45' W 122°36'1 1.9
2017-Sep-09 04:53N 37°46' W 122°34'2 3.3
2017-Sep-09 04:26N 37°46' W 122°36'13 4.8
2017-Sep-09 01:38N 37°52' W 122°51'1 5.4
2017-Sep-09 01:29N 37°53' W 122°52'3 5.3
2017-Sep-09 01:01N 37°54' W 122°54'3 5.1
2017-Sep-09 00:31N 37°56' W 122°57'2 4.9
2017-Sep-09 00:01N 37°57' W 122°60'2 4.8
2017-Sep-08 23:31N 37°58' W 123°02'2 5.0
2017-Sep-08 23:01N 38°00' W 123°04'3 5.5
2017-Sep-08 22:30N 38°03' W 123°04'3 5.6
2017-Sep-08 22:00N 38°06' W 123°04'3 5.7
2017-Sep-08 21:31N 38°09' W 123°03'3 5.4
2017-Sep-08 21:00N 38°11' W 123°03'3 5.2
2017-Sep-08 20:30N 38°14' W 123°02'3 5.1
2017-Sep-08 20:00N 38°16' W 123°02'2 4.2
2017-Sep-08 19:31N 38°18' W 123°03'1 2.8
2017-Sep-08 19:00N 38°17' W 123°03'2 3.4
2017-Sep-08 18:31N 38°15' W 123°03'4 7.2
2017-Sep-08 18:00N 38°12' W 123°03'4 7.8
2017-Sep-08 17:31N 38°08' W 123°04'4 7.6
2017-Sep-08 17:01N 38°04' W 123°04'4 7.6
2017-Sep-08 16:31N 38°00' W 123°04'4 7.3
2017-Sep-08 16:01N 37°58' W 123°01'4 8.2
2017-Sep-08 15:30N 37°55' W 122°57'4 8.1
2017-Sep-08 15:00N 37°53' W 122°52'5 8.2
2017-Sep-08 14:26N 37°51' W 122°47'4 8.2
2017-Sep-08 13:54N 37°48' W 122°43'3 8.2
2017-Sep-08 13:30N 37°46' W 122°39'4 7.0
2017-Sep-08 13:00N 37°46' W 122°35'1 1.1
2017-Sep-08 12:27N 37°45' W 122°34'2 2.3
2017-Sep-08 11:46N 37°45' W 122°36'1 3.0
2017-Sep-08 11:18N 37°45' W 122°38'13 5.8
2017-Sep-08 09:01N 37°53' W 122°52'0 6.8
2017-Sep-08 09:00N 37°53' W 122°52'3 5.9
2017-Sep-08 08:30N 37°54' W 122°55'3 6.1
2017-Sep-08 08:01N 37°56' W 122°58'3 5.7
2017-Sep-08 07:30N 37°57' W 123°01'3 5.4
2017-Sep-08 07:00N 37°59' W 123°04'3 5.1
2017-Sep-08 06:30N 38°01' W 123°05'3 6.0
2017-Sep-08 06:00N 38°04' W 123°04'3 5.8
2017-Sep-08 05:31N 38°07' W 123°04'3 5.8
2017-Sep-08 05:00N 38°10' W 123°04'3 5.8
2017-Sep-08 04:30N 38°13' W 123°03'3 5.7
2017-Sep-08 04:00N 38°16' W 123°03'2 4.5
2017-Sep-08 03:30N 38°18' W 123°03'0 0.7
2017-Sep-08 03:00N 38°19' W 123°03'0 0.0
2017-Sep-08 02:30N 38°18' W 123°03'0 0.1
2017-Sep-08 02:01N 38°19' W 123°03'1 1.7
2017-Sep-08 01:30N 38°18' W 123°03'2 4.9
2017-Sep-08 01:00N 38°15' W 123°04'4 7.5
2017-Sep-08 00:30N 38°12' W 123°06'4 8.1
2017-Sep-08 00:00N 38°08' W 123°08'4 8.0
2017-Sep-07 23:30N 38°05' W 123°10'4 7.6
2017-Sep-07 23:00N 38°02' W 123°13'4 7.5
2017-Sep-07 22:31N 37°58' W 123°15'4 7.3
2017-Sep-07 21:59N 37°55' W 123°17'4 7.3
2017-Sep-07 21:30N 37°52' W 123°19'4 7.3
2017-Sep-07 20:59N 37°49' W 123°22'8 1.4
2017-Sep-07 15:27N 37°56' W 123°18'2 5.0
2017-Sep-07 15:00N 37°58' W 123°16'3 5.1
2017-Sep-07 14:30N 37°60' W 123°15'2 5.0
2017-Sep-07 14:01N 38°02' W 123°13'2 4.8
2017-Sep-07 13:30N 38°04' W 123°12'2 4.8
2017-Sep-07 13:00N 38°06' W 123°10'2 4.8
2017-Sep-07 12:30N 38°09' W 123°09'2 4.7
2017-Sep-07 12:00N 38°11' W 123°08'3 5.2
2017-Sep-07 11:30N 38°13' W 123°06'2 4.8
2017-Sep-07 11:01N 38°15' W 123°05'3 5.1
2017-Sep-07 10:30N 38°17' W 123°03'1 2.2
2017-Sep-07 10:00N 38°18' W 123°02'0 0.8
2017-Sep-07 09:30N 38°18' W 123°02'0 0.6
2017-Sep-07 09:00N 38°18' W 123°02'2 3.3
2017-Sep-07 08:30N 38°16' W 123°03'4 8.4
2017-Sep-07 08:00N 38°12' W 123°03'4 8.6
2017-Sep-07 07:30N 38°08' W 123°03'4 8.5
2017-Sep-07 07:00N 38°04' W 123°04'4 8.8
2017-Sep-07 06:30N 37°59' W 123°04'5 9.2
2017-Sep-07 06:00N 37°57' W 122°60'4 8.5
2017-Sep-07 05:31N 37°55' W 122°55'4 8.3
2017-Sep-07 05:00N 37°52' W 122°51'6 8.3
2017-Sep-07 04:20N 37°49' W 122°45'3 8.7
2017-Sep-07 03:59N 37°47' W 122°42'5 9.0
2017-Sep-07 03:29N 37°45' W 122°37'2 3.4
2017-Sep-07 02:58N 37°46' W 122°34'2 3.6
2017-Sep-07 02:22N 37°46' W 122°37'17 5.8
2017-Sep-06 23:21N 37°55' W 122°56'2 6.1
2017-Sep-06 23:00N 37°56' W 122°58'3 5.6
2017-Sep-06 22:30N 37°58' W 123°01'3 5.3
2017-Sep-06 22:00N 37°59' W 123°04'3 5.0
2017-Sep-06 21:30N 38°02' W 123°04'3 5.8
2017-Sep-06 21:00N 38°04' W 123°04'3 5.9
2017-Sep-06 20:30N 38°07' W 123°03'3 5.8
2017-Sep-06 20:00N 38°10' W 123°03'3 6.1
2017-Sep-06 19:30N 38°13' W 123°02'3 6.0
2017-Sep-06 19:00N 38°16' W 123°02'2 4.0
2017-Sep-06 18:30N 38°18' W 123°03'2 4.6
2017-Sep-06 18:00N 38°16' W 123°03'3 6.9
2017-Sep-06 17:30N 38°13' W 123°03'4 7.7
2017-Sep-06 17:00N 38°09' W 123°04'4 7.6
2017-Sep-06 16:30N 38°05' W 123°04'4 7.9
2017-Sep-06 16:00N 38°01' W 123°04'4 7.2
2017-Sep-06 15:30N 37°58' W 123°02'4 7.6
2017-Sep-06 15:00N 37°56' W 122°58'4 7.2
2017-Sep-06 14:30N 37°54' W 122°54'4 7.0
2017-Sep-06 14:00N 37°52' W 122°50'4 7.1
2017-Sep-06 13:29N 37°50' W 122°47'4 7.3
2017-Sep-06 12:54N 37°48' W 122°42'3 8.1
2017-Sep-06 12:30N 37°46' W 122°39'3 5.7
2017-Sep-06 12:00N 37°46' W 122°35'1 1.3
2017-Sep-06 11:28N 37°45' W 122°34'1 1.9
2017-Sep-06 10:54N 37°45' W 122°36'1 2.2
2017-Sep-06 10:28N 37°45' W 122°37'1 2.9
2017-Sep-06 09:58N 37°45' W 122°39'11 4.7
2017-Sep-06 07:35N 37°52' W 122°50'1 4.7
2017-Sep-06 07:23N 37°52' W 122°51'2 4.8
2017-Sep-06 06:53N 37°54' W 122°54'2 4.8
2017-Sep-06 06:30N 37°55' W 122°56'2 4.7
2017-Sep-06 06:00N 37°56' W 122°58'2 4.5
2017-Sep-06 05:30N 37°57' W 123°01'2 4.4
2017-Sep-06 05:00N 37°59' W 123°03'2 4.2
2017-Sep-06 04:30N 38°00' W 123°05'2 4.1
2017-Sep-06 04:00N 38°02' W 123°04'2 4.1
2017-Sep-06 03:30N 38°04' W 123°04'2 4.6
2017-Sep-06 03:01N 38°06' W 123°03'2 4.5
2017-Sep-06 02:30N 38°09' W 123°03'2 4.5
2017-Sep-06 02:00N 38°11' W 123°03'2 4.8
2017-Sep-06 01:30N 38°13' W 123°02'2 4.8
2017-Sep-06 01:00N 38°16' W 123°02'2 4.8
2017-Sep-06 00:30N 38°18' W 123°02'0 0.9
2017-Sep-06 00:00N 38°18' W 123°02'4 7.9
2017-Sep-05 23:30N 38°14' W 123°02'4 8.6
2017-Sep-05 23:00N 38°09' W 123°03'4 8.6
2017-Sep-05 22:30N 38°05' W 123°04'4 8.6
2017-Sep-05 22:00N 38°01' W 123°04'4 8.3
2017-Sep-05 21:30N 37°57' W 123°01'4 8.7
2017-Sep-05 21:01N 37°55' W 122°56'4 8.5
2017-Sep-05 20:30N 37°53' W 122°51'6 8.4
2017-Sep-05 19:50N 37°50' W 122°45'3 8.2
2017-Sep-05 19:30N 37°48' W 122°42'4 8.3
2017-Sep-05 19:00N 37°47' W 122°38'3 3.5
2017-Sep-05 18:11N 37°46' W 122°34'0 1.0
2017-Sep-05 17:51N 37°46' W 122°35'2 4.9
2017-Sep-05 17:24N 37°46' W 122°37'2 5.6
2017-Sep-05 17:00N 37°46' W 122°40'3 5.1
2017-Sep-05 16:30N 37°48' W 122°43'8 5.7
2017-Sep-05 15:01N 37°53' W 122°52'0 6.4
2017-Sep-05 14:57N 37°53' W 122°52'3 6.2
2017-Sep-05 14:30N 37°54' W 122°55'3 6.1
2017-Sep-05 14:00N 37°56' W 122°58'3 5.8
2017-Sep-05 13:30N 37°58' W 123°01'3 5.7
2017-Sep-05 13:00N 37°59' W 123°04'3 5.6
2017-Sep-05 12:30N 38°02' W 123°05'3 5.4
2017-Sep-05 12:00N 38°05' W 123°04'3 5.9
2017-Sep-05 11:30N 38°08' W 123°04'3 6.1
2017-Sep-05 11:00N 38°11' W 123°03'3 6.3
2017-Sep-05 10:30N 38°14' W 123°03'3 5.5
2017-Sep-05 10:00N 38°16' W 123°03'1 2.8
2017-Sep-05 09:31N 38°18' W 123°03'1 2.1
2017-Sep-05 09:00N 38°17' W 123°03'4 7.3
2017-Sep-05 08:30N 38°13' W 123°03'4 7.8
2017-Sep-05 08:00N 38°09' W 123°03'4 8.1
2017-Sep-05 07:31N 38°05' W 123°04'4 7.9
2017-Sep-05 07:00N 38°01' W 123°04'4 7.6
2017-Sep-05 06:30N 37°58' W 123°02'4 7.7
2017-Sep-05 06:00N 37°56' W 122°58'4 7.6
2017-Sep-05 05:30N 37°54' W 122°54'4 7.5
2017-Sep-05 05:00N 37°52' W 122°50'4 7.6
2017-Sep-05 04:25N 37°50' W 122°45'4 7.4
2017-Sep-05 03:57N 37°47' W 122°42'3 7.2
2017-Sep-05 03:30N 37°45' W 122°39'4 7.1
2017-Sep-05 03:00N 37°45' W 122°35'1 1.1
2017-Sep-05 02:30N 37°46' W 122°34'2 3.4
2017-Sep-05 02:01N 37°46' W 122°36'2 4.4
2017-Sep-05 01:30N 37°45' W 122°39'13 5.1
2017-Sep-04 22:56N 37°53' W 122°53'2 4.7
2017-Sep-04 22:31N 37°54' W 122°55'2 4.7
2017-Sep-04 22:00N 37°56' W 122°57'2 4.6
2017-Sep-04 21:30N 37°57' W 122°60'2 4.3
2017-Sep-04 21:00N 37°58' W 123°02'2 3.9
2017-Sep-04 20:30N 37°59' W 123°04'2 3.9
2017-Sep-04 20:00N 38°01' W 123°04'2 4.0
2017-Sep-04 19:30N 38°03' W 123°05'2 4.4
2017-Sep-04 19:00N 38°05' W 123°04'2 4.8
2017-Sep-04 18:30N 38°08' W 123°04'3 5.2
2017-Sep-04 18:01N 38°10' W 123°04'3 5.2
2017-Sep-04 17:30N 38°13' W 123°03'3 5.1
2017-Sep-04 17:00N 38°15' W 123°03'2 4.7
2017-Sep-04 16:30N 38°18' W 123°02'1 1.4
2017-Sep-04 16:00N 38°18' W 123°03'0 0.0
2017-Sep-04 15:30N 38°18' W 123°03'0 0.7
2017-Sep-04 15:00N 38°18' W 123°02'3 6.5
2017-Sep-04 14:30N 38°15' W 123°03'4 8.0
2017-Sep-04 14:00N 38°11' W 123°03'4 8.2
2017-Sep-04 13:30N 38°07' W 123°04'4 8.2
2017-Sep-04 13:01N 38°03' W 123°04'4 8.3
2017-Sep-04 12:30N 37°59' W 123°04'4 8.2
2017-Sep-04 12:00N 37°56' W 122°60'4 8.1
2017-Sep-04 11:30N 37°54' W 122°55'4 8.3
2017-Sep-04 11:00N 37°52' W 122°51'4 8.0
2017-Sep-04 10:29N 37°50' W 122°46'4 8.0
2017-Sep-04 09:59N 37°48' W 122°42'4 7.6
2017-Sep-04 09:29N 37°46' W 122°38'3 6.1
2017-Sep-04 09:00N 37°45' W 122°34'1 1.5
2017-Sep-04 08:30N 37°45' W 122°35'3 5.2
2017-Sep-04 07:54N 37°45' W 122°39'10 6.2
2017-Sep-04 06:19N 37°51' W 122°49'2 6.8
2017-Sep-04 06:00N 37°52' W 122°52'3 6.7
2017-Sep-04 05:30N 37°54' W 122°55'3 6.6
2017-Sep-04 05:00N 37°56' W 122°59'3 6.5
2017-Sep-04 04:30N 37°58' W 123°02'3 6.3
2017-Sep-04 04:00N 37°59' W 123°05'3 6.3
2017-Sep-04 03:30N 38°03' W 123°05'3 6.8
2017-Sep-04 03:00N 38°06' W 123°04'4 7.2
2017-Sep-04 02:30N 38°09' W 123°03'4 7.1
2017-Sep-04 02:01N 38°13' W 123°03'4 7.0
2017-Sep-04 01:30N 38°16' W 123°02'2 4.3
2017-Sep-04 01:00N 38°18' W 123°03'0 0.0
2017-Sep-04 00:30N 38°18' W 123°03'0 0.1
2017-Sep-04 00:00N 38°18' W 123°03'  
Track history (hours):
 
Tides and Currents Weather Stations Pressure Air Temp Water Temp Dewpoint Dewpoint Depression Visibility Wind Speed Wind Dir Waves Ship Positions

Betty R Gambarella

Owner: CURTIN MARITIME CORP, LONG BEACH, CA. More information available from US FCC via Universal Licensing System and Coast Guard Vessel Documentation Center.

Last reported at 2017-Sep-13 23:50 UTC. Time now 2017-Sep-24 14:08 UTC.
Position N 33°46' W 118°13'.
Warning: this ship's position is 10 days out of date.

Length 33 m; draft 3.5 m.

Type: Tow > 200 m length. MMSI: 368000890.

Date/timePositionNaut miles runAvg speedWind from/ knotsBaromVisibWave heightAir tempDewpointWater temp
2017-Sep-13 23:50N 33°46' W 118°13'0 0.0
2017-Sep-13 23:31N 33°46' W 118°13'2 4.8
2017-Sep-13 23:01N 33°44' W 118°13'2 4.9
2017-Sep-13 22:30N 33°44' W 118°16'0 0.0
2017-Sep-13 22:00N 33°44' W 118°16'0 0.0
2017-Sep-13 21:30N 33°44' W 118°16'0 0.0
2017-Sep-13 21:00N 33°44' W 118°16'0 0.0
2017-Sep-13 20:31N 33°44' W 118°16'0 0.0
2017-Sep-13 20:00N 33°44' W 118°16'0 0.0
2017-Sep-13 19:31N 33°44' W 118°16'0 0.0
2017-Sep-13 19:00N 33°44' W 118°16'0 0.0
2017-Sep-13 18:31N 33°44' W 118°16'2 4.5
2017-Sep-13 18:00N 33°42' W 118°15'810.1
2017-Sep-13 17:14N 33°38' W 118°23'1510.0
2017-Sep-13 15:45N 33°31' W 118°39'2 9.8
2017-Sep-13 15:30N 33°30' W 118°41'5 9.3
2017-Sep-13 15:00N 33°28' W 118°46'5 9.5
2017-Sep-13 14:30N 33°30' W 118°52'6 9.6
2017-Sep-13 13:54N 33°31' W 118°58'4 9.9
2017-Sep-13 13:30N 33°33' W 119°03'5 9.8
2017-Sep-13 13:00N 33°34' W 119°08'16 9.6
2017-Sep-13 11:17N 33°40' W 119°27'3 9.6
2017-Sep-13 10:59N 33°41' W 119°30'5 9.6
2017-Sep-13 10:31N 33°42' W 119°35'5 9.3
2017-Sep-13 10:01N 33°43' W 119°41'5 9.5
2017-Sep-13 09:30N 33°45' W 119°46'5 9.3
2017-Sep-13 09:01N 33°46' W 119°51'5 9.6
2017-Sep-13 08:31N 33°48' W 119°57'5 9.0
2017-Sep-13 07:58N 33°49' W 120°03'4 9.5
2017-Sep-13 07:31N 33°50' W 120°08'5 9.7
2017-Sep-13 07:00N 33°52' W 120°13'5 9.5
2017-Sep-13 06:30N 33°54' W 120°18'5 9.4
2017-Sep-13 06:00N 33°56' W 120°23'5 9.1
2017-Sep-13 05:31N 33°58' W 120°28'5 9.1
2017-Sep-13 05:00N 34°01' W 120°33'5 9.4
2017-Sep-13 04:31N 34°03' W 120°38'5 9.3
2017-Sep-13 04:01N 34°05' W 120°42'5 9.1
2017-Sep-13 03:30N 34°08' W 120°47'5 9.4
2017-Sep-13 03:01N 34°10' W 120°52'5 9.5
2017-Sep-13 02:30N 34°13' W 120°56'510.3
2017-Sep-13 02:00N 34°17' W 121°00'510.0
2017-Sep-13 01:31N 34°21' W 121°04'5 9.9
2017-Sep-13 01:01N 34°25' W 121°08'5 9.8
2017-Sep-13 00:30N 34°29' W 121°11'5 9.5
2017-Sep-13 00:01N 34°33' W 121°14'5 9.5
2017-Sep-12 23:30N 34°37' W 121°17'5 9.7
2017-Sep-12 23:00N 34°42' W 121°20'5 9.7
2017-Sep-12 22:31N 34°46' W 121°23'6 9.7
2017-Sep-12 21:54N 34°51' W 121°26'4 9.6
2017-Sep-12 21:31N 34°54' W 121°28'8 9.7
2017-Sep-12 20:39N 35°02' W 121°33'2 9.4
2017-Sep-12 20:29N 35°03' W 121°34'5 9.4
2017-Sep-12 19:59N 35°07' W 121°37'119 9.5
2017-Sep-12 07:29N 36°52' W 122°47'5 9.5
2017-Sep-12 07:00N 36°56' W 122°50'5 9.6
2017-Sep-12 06:30N 37°00' W 122°53'5 9.7
2017-Sep-12 06:00N 37°05' W 122°55'6 9.8
2017-Sep-12 05:25N 37°10' W 122°57'7 9.7
2017-Sep-12 04:44N 37°17' W 122°58'210.2
2017-Sep-12 04:30N 37°19' W 122°58'510.3
2017-Sep-12 04:00N 37°24' W 122°59'510.6
2017-Sep-12 03:30N 37°30' W 122°59'510.4
2017-Sep-12 03:01N 37°35' W 123°00'16 9.8
2017-Sep-12 01:25N 37°44' W 122°45'4 9.9
2017-Sep-12 01:00N 37°46' W 122°40'5 9.9
2017-Sep-12 00:31N 37°48' W 122°34'510.1
2017-Sep-12 00:00N 37°50' W 122°28'5 9.4
2017-Sep-11 23:30N 37°54' W 122°26'4 7.6
2017-Sep-11 23:00N 37°58' W 122°26'4 8.1
2017-Sep-11 22:29N 38°01' W 122°23'4 8.4
2017-Sep-11 22:00N 38°03' W 122°18'3 1.8
2017-Sep-11 20:21N 38°04' W 122°15'3 5.8
2017-Sep-11 19:54N 38°03' W 122°18'2 4.1
2017-Sep-11 19:31N 38°03' W 122°20'2 3.2
2017-Sep-11 18:52N 38°02' W 122°22'3 6.9
2017-Sep-11 18:30N 38°00' W 122°25'3 6.8
2017-Sep-11 18:00N 37°57' W 122°26'3 6.5
2017-Sep-11 17:30N 37°54' W 122°25'3 5.7
2017-Sep-11 17:01N 37°51' W 122°25'3 6.0
2017-Sep-11 16:31N 37°49' W 122°28'2 4.4
2017-Sep-11 16:01N 37°48' W 122°31'2 3.8
2017-Sep-11 15:30N 37°47' W 122°33'2 4.0
2017-Sep-11 15:00N 37°46' W 122°35'3 5.2
2017-Sep-11 14:30N 37°46' W 122°38'11 6.1
2017-Sep-11 12:44N 37°52' W 122°49'2 5.8
2017-Sep-11 12:28N 37°53' W 122°51'3 5.9
2017-Sep-11 12:01N 37°54' W 122°54'3 6.4
2017-Sep-11 11:31N 37°55' W 122°57'3 6.1
2017-Sep-11 11:01N 37°57' W 123°01'3 6.3
2017-Sep-11 10:31N 37°59' W 123°04'3 6.3
2017-Sep-11 10:01N 38°02' W 123°05'3 6.8
2017-Sep-11 09:31N 38°06' W 123°04'3 6.9
2017-Sep-11 09:01N 38°09' W 123°04'4 7.1
2017-Sep-11 08:31N 38°12' W 123°03'4 7.2
2017-Sep-11 08:00N 38°16' W 123°03'2 4.7
2017-Sep-11 07:31N 38°18' W 123°03'2 4.2
2017-Sep-11 07:01N 38°16' W 123°02'5 9.6
2017-Sep-11 06:30N 38°12' W 123°03'5 9.4
2017-Sep-11 06:01N 38°07' W 123°03'5 9.2
2017-Sep-11 05:30N 38°02' W 123°03'4 8.7
2017-Sep-11 05:00N 37°58' W 123°02'5 9.8
2017-Sep-11 04:31N 37°56' W 122°57'5 9.7
2017-Sep-11 04:01N 37°53' W 122°51'5 9.3
2017-Sep-11 03:30N 37°51' W 122°46'5 9.3
2017-Sep-11 03:00N 37°49' W 122°41'510.1
2017-Sep-11 02:30N 37°48' W 122°34'611.5
2017-Sep-11 02:01N 37°50' W 122°28'510.8
2017-Sep-11 01:31N 37°56' W 122°25'510.2
2017-Sep-11 01:01N 38°00' W 122°24'5 9.2
2017-Sep-11 00:30N 38°03' W 122°19'4 7.4
2017-Sep-11 00:00N 38°05' W 122°15'2 3.7
2017-Sep-10 23:29N 38°06' W 122°16'3 5.4
2017-Sep-10 23:00N 38°04' W 122°15'3 5.5
2017-Sep-10 22:30N 38°03' W 122°19'4 8.1
2017-Sep-10 21:59N 38°01' W 122°23'4 8.1
2017-Sep-10 21:30N 37°57' W 122°26'4 8.4
2017-Sep-10 21:00N 37°53' W 122°25'4 7.2
2017-Sep-10 20:30N 37°50' W 122°24'4 8.7
2017-Sep-10 20:00N 37°49' W 122°29'5 8.9
2017-Sep-10 19:30N 37°46' W 122°34'2 2.6
2017-Sep-10 18:39N 37°46' W 122°36'1 4.3
2017-Sep-10 18:26N 37°46' W 122°38'12 4.4
2017-Sep-10 15:46N 37°52' W 122°50'1 4.5
2017-Sep-10 15:28N 37°53' W 122°51'2 4.6
2017-Sep-10 15:00N 37°54' W 122°54'5 4.6
2017-Sep-10 14:01N 37°56' W 122°59'2 4.5
2017-Sep-10 13:30N 37°57' W 123°01'2 4.7
2017-Sep-10 13:00N 37°59' W 123°03'2 4.5
2017-Sep-10 12:31N 38°01' W 123°05'3 5.2
2017-Sep-10 12:00N 38°03' W 123°05'3 5.3
2017-Sep-10 11:30N 38°06' W 123°04'3 5.2
2017-Sep-10 11:01N 38°08' W 123°04'3 5.3
2017-Sep-10 10:30N 38°11' W 123°03'3 5.2
2017-Sep-10 10:01N 38°14' W 123°03'3 5.0
2017-Sep-10 09:31N 38°16' W 123°03'2 4.0
2017-Sep-10 09:00N 38°18' W 123°03'0 0.8
2017-Sep-10 08:31N 38°19' W 123°03'3 6.9
2017-Sep-10 08:00N 38°15' W 123°02'5 9.2
2017-Sep-10 07:30N 38°10' W 123°03'4 8.8
2017-Sep-10 07:01N 38°06' W 123°03'5 9.0
2017-Sep-10 06:30N 38°02' W 123°03'4 8.3
2017-Sep-10 06:01N 37°58' W 123°01'4 8.9
2017-Sep-10 05:30N 37°56' W 122°56'5 9.4
2017-Sep-10 05:00N 37°53' W 122°51'5 9.5
2017-Sep-10 04:30N 37°51' W 122°46'5 9.5
2017-Sep-10 03:58N 37°49' W 122°40'510.0
2017-Sep-10 03:31N 37°48' W 122°34'510.9
2017-Sep-10 03:01N 37°50' W 122°28'510.7
2017-Sep-10 02:30N 37°55' W 122°25'610.6
2017-Sep-10 01:57N 38°01' W 122°24'510.4
2017-Sep-10 01:30N 38°03' W 122°18'4 7.2
2017-Sep-10 01:00N 38°06' W 122°16'0 1.0
2017-Sep-10 00:30N 38°06' W 122°16'1 2.5
2017-Sep-09 23:56N 38°05' W 122°15'3 7.5
2017-Sep-09 23:30N 38°03' W 122°18'5 9.0
2017-Sep-09 22:58N 38°01' W 122°24'4 8.7
2017-Sep-09 22:29N 37°57' W 122°26'4 9.4
2017-Sep-09 22:01N 37°53' W 122°24'4 7.2
2017-Sep-09 21:30N 37°49' W 122°26'5 9.9
2017-Sep-09 21:00N 37°47' W 122°32'3 5.0
2017-Sep-09 20:25N 37°46' W 122°35'4 6.3
2017-Sep-09 19:48N 37°46' W 122°40'11 6.9
2017-Sep-09 18:13N 37°52' W 122°51'2 7.3
2017-Sep-09 17:53N 37°54' W 122°54'3 7.2
2017-Sep-09 17:31N 37°55' W 122°57'4 7.0
2017-Sep-09 17:01N 37°57' W 123°00'3 6.8
2017-Sep-09 16:31N 37°59' W 123°04'3 6.3
2017-Sep-09 16:01N 38°02' W 123°05'4 7.1
2017-Sep-09 15:31N 38°06' W 123°05'4 7.1
2017-Sep-09 15:01N 38°09' W 123°04'4 7.1
2017-Sep-09 14:30N 38°13' W 123°03'3 6.9
2017-Sep-09 14:01N 38°16' W 123°03'2 4.5
2017-Sep-09 13:30N 38°18' W 123°02'1 1.9
2017-Sep-09 13:01N 38°17' W 123°02'1 2.0
2017-Sep-09 12:31N 38°17' W 123°03'2 3.7
2017-Sep-09 12:01N 38°15' W 123°03'2 4.4
2017-Sep-09 11:30N 38°13' W 123°03'3 5.4
2017-Sep-09 11:00N 38°10' W 123°04'3 6.7
2017-Sep-09 10:31N 38°07' W 123°04'3 6.4
2017-Sep-09 10:01N 38°04' W 123°04'3 6.2
2017-Sep-09 09:31N 38°00' W 123°05'3 5.8
2017-Sep-09 09:01N 37°58' W 123°03'3 6.7
2017-Sep-09 08:31N 37°56' W 122°59'3 6.5
2017-Sep-09 08:01N 37°54' W 122°56'3 6.8
2017-Sep-09 07:31N 37°53' W 122°52'4 7.3
2017-Sep-09 07:01N 37°51' W 122°48'4 7.5
2017-Sep-09 06:31N 37°48' W 122°44'4 7.6
2017-Sep-09 06:00N 37°46' W 122°40'4 6.5
2017-Sep-09 05:24N 37°45' W 122°36'1 1.9
2017-Sep-09 04:53N 37°46' W 122°34'2 3.3
2017-Sep-09 04:26N 37°46' W 122°36'13 4.8
2017-Sep-09 01:38N 37°52' W 122°51'1 5.4
2017-Sep-09 01:29N 37°53' W 122°52'3 5.3
2017-Sep-09 01:01N 37°54' W 122°54'3 5.1
2017-Sep-09 00:31N 37°56' W 122°57'2 4.9
2017-Sep-09 00:01N 37°57' W 122°60'2 4.8
2017-Sep-08 23:31N 37°58' W 123°02'2 5.0
2017-Sep-08 23:01N 38°00' W 123°04'3 5.5
2017-Sep-08 22:30N 38°03' W 123°04'3 5.6
2017-Sep-08 22:00N 38°06' W 123°04'3 5.7
2017-Sep-08 21:31N 38°09' W 123°03'3 5.4
2017-Sep-08 21:00N 38°11' W 123°03'3 5.2
2017-Sep-08 20:30N 38°14' W 123°02'3 5.1
2017-Sep-08 20:00N 38°16' W 123°02'2 4.2
2017-Sep-08 19:31N 38°18' W 123°03'1 2.8
2017-Sep-08 19:00N 38°17' W 123°03'2 3.4
2017-Sep-08 18:31N 38°15' W 123°03'4 7.2
2017-Sep-08 18:00N 38°12' W 123°03'4 7.8
2017-Sep-08 17:31N 38°08' W 123°04'4 7.6
2017-Sep-08 17:01N 38°04' W 123°04'4 7.6
2017-Sep-08 16:31N 38°00' W 123°04'4 7.3
2017-Sep-08 16:01N 37°58' W 123°01'4 8.2
2017-Sep-08 15:30N 37°55' W 122°57'4 8.1
2017-Sep-08 15:00N 37°53' W 122°52'5 8.2
2017-Sep-08 14:26N 37°51' W 122°47'4 8.2
2017-Sep-08 13:54N 37°48' W 122°43'3 8.2
2017-Sep-08 13:30N 37°46' W 122°39'4 7.0
2017-Sep-08 13:00N 37°46' W 122°35'1 1.1
2017-Sep-08 12:27N 37°45' W 122°34'2 2.3
2017-Sep-08 11:46N 37°45' W 122°36'1 3.0
2017-Sep-08 11:18N 37°45' W 122°38'13 5.8
2017-Sep-08 09:01N 37°53' W 122°52'0 6.8
2017-Sep-08 09:00N 37°53' W 122°52'3 5.9
2017-Sep-08 08:30N 37°54' W 122°55'3 6.1
2017-Sep-08 08:01N 37°56' W 122°58'3 5.7
2017-Sep-08 07:30N 37°57' W 123°01'3 5.4
2017-Sep-08 07:00N 37°59' W 123°04'3 5.1
2017-Sep-08 06:30N 38°01' W 123°05'3 6.0
2017-Sep-08 06:00N 38°04' W 123°04'3 5.8
2017-Sep-08 05:31N 38°07' W 123°04'3 5.8
2017-Sep-08 05:00N 38°10' W 123°04'3 5.8
2017-Sep-08 04:30N 38°13' W 123°03'3 5.7
2017-Sep-08 04:00N 38°16' W 123°03'2 4.5
2017-Sep-08 03:30N 38°18' W 123°03'0 0.7
2017-Sep-08 03:00N 38°19' W 123°03'0 0.0
2017-Sep-08 02:30N 38°18' W 123°03'0 0.1
2017-Sep-08 02:01N 38°19' W 123°03'1 1.7
2017-Sep-08 01:30N 38°18' W 123°03'2 4.9
2017-Sep-08 01:00N 38°15' W 123°04'4 7.5
2017-Sep-08 00:30N 38°12' W 123°06'4 8.1
2017-Sep-08 00:00N 38°08' W 123°08'4 8.0
2017-Sep-07 23:30N 38°05' W 123°10'4 7.6
2017-Sep-07 23:00N 38°02' W 123°13'4 7.5
2017-Sep-07 22:31N 37°58' W 123°15'4 7.3
2017-Sep-07 21:59N 37°55' W 123°17'4 7.3
2017-Sep-07 21:30N 37°52' W 123°19'4 7.3
2017-Sep-07 20:59N 37°49' W 123°22'8 1.4
2017-Sep-07 15:27N 37°56' W 123°18'2 5.0
2017-Sep-07 15:00N 37°58' W 123°16'3 5.1
2017-Sep-07 14:30N 37°60' W 123°15'2 5.0
2017-Sep-07 14:01N 38°02' W 123°13'2 4.8
2017-Sep-07 13:30N 38°04' W 123°12'2 4.8
2017-Sep-07 13:00N 38°06' W 123°10'2 4.8
2017-Sep-07 12:30N 38°09' W 123°09'2 4.7
2017-Sep-07 12:00N 38°11' W 123°08'3 5.2
2017-Sep-07 11:30N 38°13' W 123°06'2 4.8
2017-Sep-07 11:01N 38°15' W 123°05'3 5.1
2017-Sep-07 10:30N 38°17' W 123°03'1 2.2
2017-Sep-07 10:00N 38°18' W 123°02'0 0.8
2017-Sep-07 09:30N 38°18' W 123°02'0 0.6
2017-Sep-07 09:00N 38°18' W 123°02'2 3.3
2017-Sep-07 08:30N 38°16' W 123°03'4 8.4
2017-Sep-07 08:00N 38°12' W 123°03'4 8.6
2017-Sep-07 07:30N 38°08' W 123°03'4 8.5
2017-Sep-07 07:00N 38°04' W 123°04'4 8.8
2017-Sep-07 06:30N 37°59' W 123°04'5 9.2
2017-Sep-07 06:00N 37°57' W 122°60'4 8.5
2017-Sep-07 05:31N 37°55' W 122°55'4 8.3
2017-Sep-07 05:00N 37°52' W 122°51'6 8.3
2017-Sep-07 04:20N 37°49' W 122°45'3 8.7
2017-Sep-07 03:59N 37°47' W 122°42'5 9.0
2017-Sep-07 03:29N 37°45' W 122°37'2 3.4
2017-Sep-07 02:58N 37°46' W 122°34'2 3.6
2017-Sep-07 02:22N 37°46' W 122°37'17 5.8
2017-Sep-06 23:21N 37°55' W 122°56'2 6.1
2017-Sep-06 23:00N 37°56' W 122°58'3 5.6
2017-Sep-06 22:30N 37°58' W 123°01'3 5.3
2017-Sep-06 22:00N 37°59' W 123°04'3 5.0
2017-Sep-06 21:30N 38°02' W 123°04'3 5.8
2017-Sep-06 21:00N 38°04' W 123°04'3 5.9
2017-Sep-06 20:30N 38°07' W 123°03'3 5.8
2017-Sep-06 20:00N 38°10' W 123°03'3 6.1
2017-Sep-06 19:30N 38°13' W 123°02'3 6.0
2017-Sep-06 19:00N 38°16' W 123°02'2 4.0
2017-Sep-06 18:30N 38°18' W 123°03'2 4.6
2017-Sep-06 18:00N 38°16' W 123°03'3 6.9
2017-Sep-06 17:30N 38°13' W 123°03'4 7.7
2017-Sep-06 17:00N 38°09' W 123°04'4 7.6
2017-Sep-06 16:30N 38°05' W 123°04'4 7.9
2017-Sep-06 16:00N 38°01' W 123°04'4 7.2
2017-Sep-06 15:30N 37°58' W 123°02'4 7.6
2017-Sep-06 15:00N 37°56' W 122°58'4 7.2
2017-Sep-06 14:30N 37°54' W 122°54'4 7.0
2017-Sep-06 14:00N 37°52' W 122°50'4 7.1
2017-Sep-06 13:29N 37°50' W 122°47'4 7.3
2017-Sep-06 12:54N 37°48' W 122°42'3 8.1
2017-Sep-06 12:30N 37°46' W 122°39'3 5.7
2017-Sep-06 12:00N 37°46' W 122°35'1 1.3
2017-Sep-06 11:28N 37°45' W 122°34'1 1.9
2017-Sep-06 10:54N 37°45' W 122°36'1 2.2
2017-Sep-06 10:28N 37°45' W 122°37'1 2.9
2017-Sep-06 09:58N 37°45' W 122°39'11 4.7
2017-Sep-06 07:35N 37°52' W 122°50'1 4.7
2017-Sep-06 07:23N 37°52' W 122°51'2 4.8
2017-Sep-06 06:53N 37°54' W 122°54'2 4.8
2017-Sep-06 06:30N 37°55' W 122°56'2 4.7
2017-Sep-06 06:00N 37°56' W 122°58'2 4.5
2017-Sep-06 05:30N 37°57' W 123°01'2 4.4
2017-Sep-06 05:00N 37°59' W 123°03'2 4.2
2017-Sep-06 04:30N 38°00' W 123°05'2 4.1
2017-Sep-06 04:00N 38°02' W 123°04'2 4.1
2017-Sep-06 03:30N 38°04' W 123°04'2 4.6
2017-Sep-06 03:01N 38°06' W 123°03'2 4.5
2017-Sep-06 02:30N 38°09' W 123°03'2 4.5
2017-Sep-06 02:00N 38°11' W 123°03'2 4.8
2017-Sep-06 01:30N 38°13' W 123°02'2 4.8
2017-Sep-06 01:00N 38°16' W 123°02'2 4.8
2017-Sep-06 00:30N 38°18' W 123°02'0 0.9
2017-Sep-06 00:00N 38°18' W 123°02'4 7.9
2017-Sep-05 23:30N 38°14' W 123°02'4 8.6
2017-Sep-05 23:00N 38°09' W 123°03'4 8.6
2017-Sep-05 22:30N 38°05' W 123°04'4 8.6
2017-Sep-05 22:00N 38°01' W 123°04'4 8.3
2017-Sep-05 21:30N 37°57' W 123°01'4 8.7
2017-Sep-05 21:01N 37°55' W 122°56'4 8.5
2017-Sep-05 20:30N 37°53' W 122°51'6 8.4
2017-Sep-05 19:50N 37°50' W 122°45'3 8.2
2017-Sep-05 19:30N 37°48' W 122°42'4 8.3
2017-Sep-05 19:00N 37°47' W 122°38'3 3.5
2017-Sep-05 18:11N 37°46' W 122°34'0 1.0
2017-Sep-05 17:51N 37°46' W 122°35'2 4.9
2017-Sep-05 17:24N 37°46' W 122°37'2 5.6
2017-Sep-05 17:00N 37°46' W 122°40'3 5.1
2017-Sep-05 16:30N 37°48' W 122°43'8 5.7
2017-Sep-05 15:01N 37°53' W 122°52'0 6.4
2017-Sep-05 14:57N 37°53' W 122°52'3 6.2
2017-Sep-05 14:30N 37°54' W 122°55'3 6.1
2017-Sep-05 14:00N 37°56' W 122°58'3 5.8
2017-Sep-05 13:30N 37°58' W 123°01'3 5.7
2017-Sep-05 13:00N 37°59' W 123°04'3 5.6
2017-Sep-05 12:30N 38°02' W 123°05'3 5.4
2017-Sep-05 12:00N 38°05' W 123°04'3 5.9
2017-Sep-05 11:30N 38°08' W 123°04'3 6.1
2017-Sep-05 11:00N 38°11' W 123°03'3 6.3
2017-Sep-05 10:30N 38°14' W 123°03'3 5.5
2017-Sep-05 10:00N 38°16' W 123°03'1 2.8
2017-Sep-05 09:31N 38°18' W 123°03'1 2.1
2017-Sep-05 09:00N 38°17' W 123°03'4 7.3
2017-Sep-05 08:30N 38°13' W 123°03'4 7.8
2017-Sep-05 08:00N 38°09' W 123°03'4 8.1
2017-Sep-05 07:31N 38°05' W 123°04'4 7.9
2017-Sep-05 07:00N 38°01' W 123°04'4 7.6
2017-Sep-05 06:30N 37°58' W 123°02'4 7.7
2017-Sep-05 06:00N 37°56' W 122°58'4 7.6
2017-Sep-05 05:30N 37°54' W 122°54'4 7.5
2017-Sep-05 05:00N 37°52' W 122°50'4 7.6
2017-Sep-05 04:25N 37°50' W 122°45'4 7.4
2017-Sep-05 03:57N 37°47' W 122°42'3 7.2
2017-Sep-05 03:30N 37°45' W 122°39'4 7.1
2017-Sep-05 03:00N 37°45' W 122°35'1 1.1
2017-Sep-05 02:30N 37°46' W 122°34'2 3.4
2017-Sep-05 02:01N 37°46' W 122°36'2 4.4
2017-Sep-05 01:30N 37°45' W 122°39'13 5.1
2017-Sep-04 22:56N 37°53' W 122°53'2 4.7
2017-Sep-04 22:31N 37°54' W 122°55'2 4.7
2017-Sep-04 22:00N 37°56' W 122°57'2 4.6
2017-Sep-04 21:30N 37°57' W 122°60'2 4.3
2017-Sep-04 21:00N 37°58' W 123°02'2 3.9
2017-Sep-04 20:30N 37°59' W 123°04'2 3.9
2017-Sep-04 20:00N 38°01' W 123°04'2 4.0
2017-Sep-04 19:30N 38°03' W 123°05'2 4.4
2017-Sep-04 19:00N 38°05' W 123°04'2 4.8
2017-Sep-04 18:30N 38°08' W 123°04'3 5.2
2017-Sep-04 18:01N 38°10' W 123°04'3 5.2
2017-Sep-04 17:30N 38°13' W 123°03'3 5.1
2017-Sep-04 17:00N 38°15' W 123°03'2 4.7
2017-Sep-04 16:30N 38°18' W 123°02'1 1.4
2017-Sep-04 16:00N 38°18' W 123°03'0 0.0
2017-Sep-04 15:30N 38°18' W 123°03'0 0.7
2017-Sep-04 15:00N 38°18' W 123°02'3 6.5
2017-Sep-04 14:30N 38°15' W 123°03'4 8.0
2017-Sep-04 14:00N 38°11' W 123°03'4 8.2
2017-Sep-04 13:30N 38°07' W 123°04'4 8.2
2017-Sep-04 13:01N 38°03' W 123°04'4 8.3
2017-Sep-04 12:30N 37°59' W 123°04'4 8.2
2017-Sep-04 12:00N 37°56' W 122°60'4 8.1
2017-Sep-04 11:30N 37°54' W 122°55'4 8.3
2017-Sep-04 11:00N 37°52' W 122°51'4 8.0
2017-Sep-04 10:29N 37°50' W 122°46'4 8.0
2017-Sep-04 09:59N 37°48' W 122°42'4 7.6
2017-Sep-04 09:29N 37°46' W 122°38'3 6.1
2017-Sep-04 09:00N 37°45' W 122°34'1 1.5
2017-Sep-04 08:30N 37°45' W 122°35'3 5.2
2017-Sep-04 07:54N 37°45' W 122°39'10 6.2
2017-Sep-04 06:19N 37°51' W 122°49'2 6.8
2017-Sep-04 06:00N 37°52' W 122°52'3 6.7
2017-Sep-04 05:30N 37°54' W 122°55'3 6.6
2017-Sep-04 05:00N 37°56' W 122°59'3 6.5
2017-Sep-04 04:30N 37°58' W 123°02'3 6.3
2017-Sep-04 04:00N 37°59' W 123°05'3 6.3
2017-Sep-04 03:30N 38°03' W 123°05'3 6.8
2017-Sep-04 03:00N 38°06' W 123°04'4 7.2
2017-Sep-04 02:30N 38°09' W 123°03'4 7.1
2017-Sep-04 02:01N 38°13' W 123°03'4 7.0
2017-Sep-04 01:30N 38°16' W 123°02'2 4.3
2017-Sep-04 01:00N 38°18' W 123°03'0 0.0
2017-Sep-04 00:30N 38°18' W 123°03'0 0.1
2017-Sep-04 00:00N 38°18' W 123°03'  

Dump ship's entire track history